sensor_id;sensor_type;location;lat;lon;timestamp;P1;durP1;ratioP1;P2;durP2;ratioP2
7969;SDS011;4030;52.362;9.206;2023-05-01T00:00:02;4.07;;;3.05;;
7969;SDS011;4030;52.362;9.206;2023-05-01T00:02:29;4.45;;;2.90;;
7969;SDS011;4030;52.362;9.206;2023-05-01T00:04:55;4.57;;;2.95;;
7969;SDS011;4030;52.362;9.206;2023-05-01T00:07:21;5.45;;;3.50;;
7969;SDS011;4030;52.362;9.206;2023-05-01T00:09:48;4.20;;;3.00;;
7969;SDS011;4030;52.362;9.206;2023-05-01T00:12:15;4.65;;;3.38;;
7969;SDS011;4030;52.362;9.206;2023-05-01T00:14:41;5.53;;;3.03;;
7969;SDS011;4030;52.362;9.206;2023-05-01T00:17:07;4.03;;;3.05;;
7969;SDS011;4030;52.362;9.206;2023-05-01T00:19:33;4.28;;;3.17;;
7969;SDS011;4030;52.362;9.206;2023-05-01T00:21:59;4.35;;;2.72;;
7969;SDS011;4030;52.362;9.206;2023-05-01T00:24:24;4.13;;;3.33;;
7969;SDS011;4030;52.362;9.206;2023-05-01T00:26:51;5.75;;;3.13;;
7969;SDS011;4030;52.362;9.206;2023-05-01T00:29:17;4.28;;;2.88;;
7969;SDS011;4030;52.362;9.206;2023-05-01T00:31:43;5.88;;;3.08;;
7969;SDS011;4030;52.362;9.206;2023-05-01T00:34:09;4.50;;;2.80;;
7969;SDS011;4030;52.362;9.206;2023-05-01T00:36:37;4.25;;;2.50;;
7969;SDS011;4030;52.362;9.206;2023-05-01T00:39:03;4.07;;;2.90;;
7969;SDS011;4030;52.362;9.206;2023-05-01T00:41:31;4.10;;;2.95;;
7969;SDS011;4030;52.362;9.206;2023-05-01T00:44:00;5.13;;;2.92;;
7969;SDS011;4030;52.362;9.206;2023-05-01T00:46:29;4.47;;;2.88;;
7969;SDS011;4030;52.362;9.206;2023-05-01T00:48:57;4.03;;;2.50;;
7969;SDS011;4030;52.362;9.206;2023-05-01T00:51:24;3.22;;;2.60;;
7969;SDS011;4030;52.362;9.206;2023-05-01T00:53:54;3.53;;;2.58;;
7969;SDS011;4030;52.362;9.206;2023-05-01T00:56:20;4.10;;;2.55;;
7969;SDS011;4030;52.362;9.206;2023-05-01T00:58:48;3.92;;;2.55;;
7969;SDS011;4030;52.362;9.206;2023-05-01T01:01:17;3.13;;;2.70;;
7969;SDS011;4030;52.362;9.206;2023-05-01T01:03:47;3.03;;;2.50;;
7969;SDS011;4030;52.362;9.206;2023-05-01T01:06:20;4.47;;;2.67;;
7969;SDS011;4030;52.362;9.206;2023-05-01T01:11:52;2.97;;;2.42;;
7969;SDS011;4030;52.362;9.206;2023-05-01T01:14:59;3.92;;;2.53;;
7969;SDS011;4030;52.362;9.206;2023-05-01T01:17:41;3.65;;;2.55;;
7969;SDS011;4030;52.362;9.206;2023-05-01T01:20:36;3.95;;;2.63;;
7969;SDS011;4030;52.362;9.206;2023-05-01T01:35:22;4.00;;;2.42;;
7969;SDS011;4030;52.362;9.206;2023-05-01T01:38:08;2.95;;;2.38;;
7969;SDS011;4030;52.362;9.206;2023-05-01T01:43:22;3.95;;;2.45;;
7969;SDS011;4030;52.362;9.206;2023-05-01T01:45:52;3.55;;;2.50;;
7969;SDS011;4030;52.362;9.206;2023-05-01T01:48:25;3.45;;;2.30;;
7969;SDS011;4030;52.362;9.206;2023-05-01T01:50:56;3.33;;;2.42;;
7969;SDS011;4030;52.362;9.206;2023-05-01T01:53:23;4.47;;;2.53;;
7969;SDS011;4030;52.362;9.206;2023-05-01T01:55:52;4.18;;;2.63;;
7969;SDS011;4030;52.362;9.206;2023-05-01T01:58:21;2.67;;;2.00;;
7969;SDS011;4030;52.362;9.206;2023-05-01T02:00:51;4.07;;;2.30;;
7969;SDS011;4030;52.362;9.206;2023-05-01T02:03:19;2.95;;;2.20;;
7969;SDS011;4030;52.362;9.206;2023-05-01T02:05:47;3.17;;;2.28;;
7969;SDS011;4030;52.362;9.206;2023-05-01T02:08:14;4.68;;;2.10;;
7969;SDS011;4030;52.362;9.206;2023-05-01T02:10:41;2.67;;;2.00;;
7969;SDS011;4030;52.362;9.206;2023-05-01T02:13:09;3.20;;;2.50;;
7969;SDS011;4030;52.362;9.206;2023-05-01T02:15:38;2.67;;;2.17;;
7969;SDS011;4030;52.362;9.206;2023-05-01T02:18:05;2.90;;;2.33;;
7969;SDS011;4030;52.362;9.206;2023-05-01T02:20:31;3.65;;;2.20;;
7969;SDS011;4030;52.362;9.206;2023-05-01T02:22:57;3.00;;;2.15;;
7969;SDS011;4030;52.362;9.206;2023-05-01T02:25:24;3.58;;;2.38;;
7969;SDS011;4030;52.362;9.206;2023-05-01T02:27:54;3.03;;;2.13;;
7969;SDS011;4030;52.362;9.206;2023-05-01T02:30:24;3.45;;;2.30;;
7969;SDS011;4030;52.362;9.206;2023-05-01T02:32:50;3.25;;;2.13;;
7969;SDS011;4030;52.362;9.206;2023-05-01T02:35:16;2.85;;;2.05;;
7969;SDS011;4030;52.362;9.206;2023-05-01T02:37:43;3.78;;;2.17;;
7969;SDS011;4030;52.362;9.206;2023-05-01T02:40:10;3.75;;;2.40;;
7969;SDS011;4030;52.362;9.206;2023-05-01T02:42:38;3.58;;;2.05;;
7969;SDS011;4030;52.362;9.206;2023-05-01T02:45:09;3.03;;;2.08;;
7969;SDS011;4030;52.362;9.206;2023-05-01T02:47:49;3.33;;;1.98;;
7969;SDS011;4030;52.362;9.206;2023-05-01T02:50:17;4.28;;;2.17;;
7969;SDS011;4030;52.362;9.206;2023-05-01T02:52:44;4.45;;;2.13;;
7969;SDS011;4030;52.362;9.206;2023-05-01T02:55:11;3.35;;;2.10;;
7969;SDS011;4030;52.362;9.206;2023-05-01T02:57:37;3.13;;;2.10;;
7969;SDS011;4030;52.362;9.206;2023-05-01T03:00:03;3.08;;;2.10;;
7969;SDS011;4030;52.362;9.206;2023-05-01T03:02:33;3.72;;;2.20;;
7969;SDS011;4030;52.362;9.206;2023-05-01T03:04:59;2.45;;;1.85;;
7969;SDS011;4030;52.362;9.206;2023-05-01T03:07:25;2.38;;;1.98;;
7969;SDS011;4030;52.362;9.206;2023-05-01T03:09:58;3.72;;;1.92;;
7969;SDS011;4030;52.362;9.206;2023-05-01T03:12:27;2.85;;;1.95;;
7969;SDS011;4030;52.362;9.206;2023-05-01T03:14:53;2.10;;;1.70;;
7969;SDS011;4030;52.362;9.206;2023-05-01T03:17:19;3.25;;;1.83;;
7969;SDS011;4030;52.362;9.206;2023-05-01T03:19:45;2.70;;;1.92;;
7969;SDS011;4030;52.362;9.206;2023-05-01T03:22:11;2.80;;;1.95;;
7969;SDS011;4030;52.362;9.206;2023-05-01T03:24:37;2.58;;;1.80;;
7969;SDS011;4030;52.362;9.206;2023-05-01T03:27:03;3.33;;;2.00;;
7969;SDS011;4030;52.362;9.206;2023-05-01T03:29:29;2.33;;;1.70;;
7969;SDS011;4030;52.362;9.206;2023-05-01T03:31:55;3.45;;;1.83;;
7969;SDS011;4030;52.362;9.206;2023-05-01T03:34:21;3.00;;;1.90;;
7969;SDS011;4030;52.362;9.206;2023-05-01T03:36:47;2.92;;;1.95;;
7969;SDS011;4030;52.362;9.206;2023-05-01T03:39:13;2.45;;;2.00;;
7969;SDS011;4030;52.362;9.206;2023-05-01T03:41:39;2.83;;;1.85;;
7969;SDS011;4030;52.362;9.206;2023-05-01T03:44:04;2.83;;;2.13;;
7969;SDS011;4030;52.362;9.206;2023-05-01T03:46:30;3.08;;;2.00;;
7969;SDS011;4030;52.362;9.206;2023-05-01T03:48:56;2.60;;;2.03;;
7969;SDS011;4030;52.362;9.206;2023-05-01T03:51:22;3.20;;;2.00;;
7969;SDS011;4030;52.362;9.206;2023-05-01T03:53:48;2.67;;;1.80;;
7969;SDS011;4030;52.362;9.206;2023-05-01T03:56:16;3.55;;;2.00;;
7969;SDS011;4030;52.362;9.206;2023-05-01T03:58:42;3.00;;;2.10;;
7969;SDS011;4030;52.362;9.206;2023-05-01T04:01:08;3.13;;;2.00;;
7969;SDS011;4030;52.362;9.206;2023-05-01T04:03:33;2.25;;;1.90;;
7969;SDS011;4030;52.362;9.206;2023-05-01T04:05:59;2.53;;;1.98;;
7969;SDS011;4030;52.362;9.206;2023-05-01T04:08:25;2.95;;;1.90;;
7969;SDS011;4030;52.362;9.206;2023-05-01T04:10:51;2.75;;;2.22;;
7969;SDS011;4030;52.362;9.206;2023-05-01T04:13:17;3.55;;;2.05;;
7969;SDS011;4030;52.362;9.206;2023-05-01T04:15:43;3.00;;;2.03;;
7969;SDS011;4030;52.362;9.206;2023-05-01T04:18:10;3.10;;;2.10;;
7969;SDS011;4030;52.362;9.206;2023-05-01T04:20:36;2.22;;;1.88;;
7969;SDS011;4030;52.362;9.206;2023-05-01T04:23:04;2.45;;;1.75;;
7969;SDS011;4030;52.362;9.206;2023-05-01T04:25:29;3.00;;;1.98;;
7969;SDS011;4030;52.362;9.206;2023-05-01T04:27:55;3.35;;;2.10;;
7969;SDS011;4030;52.362;9.206;2023-05-01T04:30:21;3.15;;;1.90;;
7969;SDS011;4030;52.362;9.206;2023-05-01T04:32:47;2.38;;;1.95;;
7969;SDS011;4030;52.362;9.206;2023-05-01T04:35:13;2.95;;;2.10;;
7969;SDS011;4030;52.362;9.206;2023-05-01T04:37:40;3.17;;;2.05;;
7969;SDS011;4030;52.362;9.206;2023-05-01T04:40:06;3.28;;;2.00;;
7969;SDS011;4030;52.362;9.206;2023-05-01T04:42:33;2.45;;;1.90;;
7969;SDS011;4030;52.362;9.206;2023-05-01T04:44:59;3.13;;;2.00;;
7969;SDS011;4030;52.362;9.206;2023-05-01T04:47:27;3.78;;;2.03;;
7969;SDS011;4030;52.362;9.206;2023-05-01T04:49:53;2.53;;;1.92;;
7969;SDS011;4030;52.362;9.206;2023-05-01T04:52:19;3.45;;;2.08;;
7969;SDS011;4030;52.362;9.206;2023-05-01T04:54:46;4.10;;;2.38;;
7969;SDS011;4030;52.362;9.206;2023-05-01T04:57:11;3.70;;;2.50;;
7969;SDS011;4030;52.362;9.206;2023-05-01T04:59:37;3.42;;;2.10;;
7969;SDS011;4030;52.362;9.206;2023-05-01T05:02:03;3.55;;;2.50;;
7969;SDS011;4030;52.362;9.206;2023-05-01T05:04:30;4.32;;;2.20;;
7969;SDS011;4030;52.362;9.206;2023-05-01T05:06:57;4.18;;;2.28;;
7969;SDS011;4030;52.362;9.206;2023-05-01T05:09:22;4.05;;;2.53;;
7969;SDS011;4030;52.362;9.206;2023-05-01T05:11:48;4.28;;;2.50;;
7969;SDS011;4030;52.362;9.206;2023-05-01T05:14:14;3.88;;;2.45;;
7969;SDS011;4030;52.362;9.206;2023-05-01T05:16:40;3.80;;;2.50;;
7969;SDS011;4030;52.362;9.206;2023-05-01T05:19:06;3.30;;;2.20;;
7969;SDS011;4030;52.362;9.206;2023-05-01T05:21:32;2.90;;;2.20;;
7969;SDS011;4030;52.362;9.206;2023-05-01T05:23:58;4.45;;;2.40;;
7969;SDS011;4030;52.362;9.206;2023-05-01T05:26:24;4.45;;;2.72;;
7969;SDS011;4030;52.362;9.206;2023-05-01T05:28:50;3.85;;;2.47;;
7969;SDS011;4030;52.362;9.206;2023-05-01T05:31:16;3.65;;;2.40;;
7969;SDS011;4030;52.362;9.206;2023-05-01T05:33:42;4.65;;;2.28;;
7969;SDS011;4030;52.362;9.206;2023-05-01T05:36:09;3.75;;;2.40;;
7969;SDS011;4030;52.362;9.206;2023-05-01T05:38:35;2.97;;;2.25;;
7969;SDS011;4030;52.362;9.206;2023-05-01T05:41:01;2.78;;;2.22;;
7969;SDS011;4030;52.362;9.206;2023-05-01T05:43:27;4.28;;;2.47;;
7969;SDS011;4030;52.362;9.206;2023-05-01T05:45:56;3.67;;;2.40;;
7969;SDS011;4030;52.362;9.206;2023-05-01T05:48:23;3.78;;;2.30;;
7969;SDS011;4030;52.362;9.206;2023-05-01T05:50:49;4.35;;;2.42;;
7969;SDS011;4030;52.362;9.206;2023-05-01T05:53:16;2.90;;;2.20;;
7969;SDS011;4030;52.362;9.206;2023-05-01T05:55:45;3.47;;;2.30;;
7969;SDS011;4030;52.362;9.206;2023-05-01T05:58:11;5.32;;;2.53;;
7969;SDS011;4030;52.362;9.206;2023-05-01T06:00:44;3.20;;;2.20;;
7969;SDS011;4030;52.362;9.206;2023-05-01T06:03:12;3.33;;;2.20;;
7969;SDS011;4030;52.362;9.206;2023-05-01T06:05:38;3.38;;;2.25;;
7969;SDS011;4030;52.362;9.206;2023-05-01T06:08:04;3.70;;;2.28;;
7969;SDS011;4030;52.362;9.206;2023-05-01T06:10:30;3.00;;;2.10;;
7969;SDS011;4030;52.362;9.206;2023-05-01T06:12:55;4.40;;;2.28;;
7969;SDS011;4030;52.362;9.206;2023-05-01T06:15:21;4.65;;;2.58;;
7969;SDS011;4030;52.362;9.206;2023-05-01T06:17:48;3.42;;;2.30;;
7969;SDS011;4030;52.362;9.206;2023-05-01T06:20:14;5.20;;;2.25;;
7969;SDS011;4030;52.362;9.206;2023-05-01T06:22:40;4.15;;;1.83;;
7969;SDS011;4030;52.362;9.206;2023-05-01T06:25:06;4.65;;;2.25;;
7969;SDS011;4030;52.362;9.206;2023-05-01T06:27:33;2.70;;;2.17;;
7969;SDS011;4030;52.362;9.206;2023-05-01T06:29:58;4.35;;;2.25;;
7969;SDS011;4030;52.362;9.206;2023-05-01T06:32:24;4.25;;;2.20;;
7969;SDS011;4030;52.362;9.206;2023-05-01T06:34:50;4.72;;;2.10;;
7969;SDS011;4030;52.362;9.206;2023-05-01T06:37:16;4.82;;;2.20;;
7969;SDS011;4030;52.362;9.206;2023-05-01T06:39:42;2.88;;;1.98;;
7969;SDS011;4030;52.362;9.206;2023-05-01T06:42:08;3.15;;;2.08;;
7969;SDS011;4030;52.362;9.206;2023-05-01T06:44:36;2.80;;;2.05;;
7969;SDS011;4030;52.362;9.206;2023-05-01T06:47:02;3.38;;;2.00;;
7969;SDS011;4030;52.362;9.206;2023-05-01T06:49:29;3.70;;;2.30;;
7969;SDS011;4030;52.362;9.206;2023-05-01T06:51:54;5.15;;;2.42;;
7969;SDS011;4030;52.362;9.206;2023-05-01T06:54:21;4.18;;;2.10;;
7969;SDS011;4030;52.362;9.206;2023-05-01T06:56:47;2.78;;;1.75;;
7969;SDS011;4030;52.362;9.206;2023-05-01T06:59:13;2.88;;;1.98;;
7969;SDS011;4030;52.362;9.206;2023-05-01T07:01:39;3.53;;;2.10;;
7969;SDS011;4030;52.362;9.206;2023-05-01T07:04:05;2.75;;;1.80;;
7969;SDS011;4030;52.362;9.206;2023-05-01T07:06:31;2.83;;;2.00;;
7969;SDS011;4030;52.362;9.206;2023-05-01T07:08:57;2.97;;;1.90;;
7969;SDS011;4030;52.362;9.206;2023-05-01T07:11:23;4.70;;;2.10;;
7969;SDS011;4030;52.362;9.206;2023-05-01T07:13:50;2.47;;;1.77;;
7969;SDS011;4030;52.362;9.206;2023-05-01T07:16:18;2.28;;;1.65;;
7969;SDS011;4030;52.362;9.206;2023-05-01T07:18:44;2.08;;;1.73;;
7969;SDS011;4030;52.362;9.206;2023-05-01T07:21:10;3.65;;;1.95;;
7969;SDS011;4030;52.362;9.206;2023-05-01T07:23:36;3.33;;;2.00;;
7969;SDS011;4030;52.362;9.206;2023-05-01T07:26:02;2.30;;;1.80;;
7969;SDS011;4030;52.362;9.206;2023-05-01T07:28:28;4.53;;;2.10;;
7969;SDS011;4030;52.362;9.206;2023-05-01T07:30:54;3.13;;;1.75;;
7969;SDS011;4030;52.362;9.206;2023-05-01T07:33:20;3.65;;;1.88;;
7969;SDS011;4030;52.362;9.206;2023-05-01T07:35:47;2.80;;;1.83;;
7969;SDS011;4030;52.362;9.206;2023-05-01T07:38:14;3.20;;;1.88;;
7969;SDS011;4030;52.362;9.206;2023-05-01T07:40:40;3.67;;;1.90;;
7969;SDS011;4030;52.362;9.206;2023-05-01T07:43:06;3.42;;;1.90;;
7969;SDS011;4030;52.362;9.206;2023-05-01T07:45:35;2.88;;;1.95;;
7969;SDS011;4030;52.362;9.206;2023-05-01T07:48:02;2.78;;;1.90;;
7969;SDS011;4030;52.362;9.206;2023-05-01T07:50:29;3.22;;;1.95;;
7969;SDS011;4030;52.362;9.206;2023-05-01T07:52:54;2.35;;;1.63;;
7969;SDS011;4030;52.362;9.206;2023-05-01T07:55:21;2.95;;;1.77;;
7969;SDS011;4030;52.362;9.206;2023-05-01T07:57:47;3.35;;;1.80;;
7969;SDS011;4030;52.362;9.206;2023-05-01T08:00:13;2.53;;;1.90;;
7969;SDS011;4030;52.362;9.206;2023-05-01T08:02:39;2.67;;;1.67;;
7969;SDS011;4030;52.362;9.206;2023-05-01T08:05:05;2.30;;;1.60;;
7969;SDS011;4030;52.362;9.206;2023-05-01T08:07:31;3.00;;;1.85;;
7969;SDS011;4030;52.362;9.206;2023-05-01T08:09:57;3.05;;;2.03;;
7969;SDS011;4030;52.362;9.206;2023-05-01T08:12:24;2.38;;;2.00;;
7969;SDS011;4030;52.362;9.206;2023-05-01T08:14:51;3.08;;;1.60;;
7969;SDS011;4030;52.362;9.206;2023-05-01T08:17:17;2.22;;;1.60;;
7969;SDS011;4030;52.362;9.206;2023-05-01T08:19:42;2.05;;;1.85;;
7969;SDS011;4030;52.362;9.206;2023-05-01T08:22:09;2.33;;;1.80;;
7969;SDS011;4030;52.362;9.206;2023-05-01T08:24:36;2.72;;;2.03;;
7969;SDS011;4030;52.362;9.206;2023-05-01T08:27:06;2.60;;;1.63;;
7969;SDS011;4030;52.362;9.206;2023-05-01T08:29:33;2.95;;;1.77;;
7969;SDS011;4030;52.362;9.206;2023-05-01T08:31:58;2.55;;;1.70;;
7969;SDS011;4030;52.362;9.206;2023-05-01T08:34:24;3.95;;;1.80;;
7969;SDS011;4030;52.362;9.206;2023-05-01T08:36:50;2.63;;;1.60;;
7969;SDS011;4030;52.362;9.206;2023-05-01T08:39:16;3.50;;;1.90;;
7969;SDS011;4030;52.362;9.206;2023-05-01T08:41:45;4.60;;;1.90;;
7969;SDS011;4030;52.362;9.206;2023-05-01T08:44:12;6.13;;;2.17;;
7969;SDS011;4030;52.362;9.206;2023-05-01T08:46:44;5.13;;;1.80;;
7969;SDS011;4030;52.362;9.206;2023-05-01T08:49:14;4.80;;;1.90;;
7969;SDS011;4030;52.362;9.206;2023-05-01T08:51:41;4.90;;;2.40;;
7969;SDS011;4030;52.362;9.206;2023-05-01T08:54:11;9.43;;;2.05;;
7969;SDS011;4030;52.362;9.206;2023-05-01T08:56:39;9.68;;;1.88;;
7969;SDS011;4030;52.362;9.206;2023-05-01T08:59:08;9.52;;;2.72;;
7969;SDS011;4030;52.362;9.206;2023-05-01T09:01:38;11.02;;;2.30;;
7969;SDS011;4030;52.362;9.206;2023-05-01T09:04:05;21.98;;;3.13;;
7969;SDS011;4030;52.362;9.206;2023-05-01T09:06:33;10.45;;;2.60;;
7969;SDS011;4030;52.362;9.206;2023-05-01T09:09:00;4.78;;;2.58;;
7969;SDS011;4030;52.362;9.206;2023-05-01T09:11:26;8.73;;;2.33;;
7969;SDS011;4030;52.362;9.206;2023-05-01T09:13:52;19.95;;;2.60;;
7969;SDS011;4030;52.362;9.206;2023-05-01T09:16:18;15.07;;;2.33;;
7969;SDS011;4030;52.362;9.206;2023-05-01T09:18:45;28.65;;;3.40;;
7969;SDS011;4030;52.362;9.206;2023-05-01T09:21:11;104.32;;;8.20;;
7969;SDS011;4030;52.362;9.206;2023-05-01T09:23:37;28.48;;;4.70;;
7969;SDS011;4030;52.362;9.206;2023-05-01T09:26:04;35.13;;;3.45;;
7969;SDS011;4030;52.362;9.206;2023-05-01T09:28:39;53.28;;;5.85;;
7969;SDS011;4030;52.362;9.206;2023-05-01T09:31:22;71.57;;;5.40;;
7969;SDS011;4030;52.362;9.206;2023-05-01T09:34:00;27.13;;;4.32;;
7969;SDS011;4030;52.362;9.206;2023-05-01T09:36:28;58.73;;;5.30;;
7969;SDS011;4030;52.362;9.206;2023-05-01T09:38:56;41.78;;;4.85;;
7969;SDS011;4030;52.362;9.206;2023-05-01T09:41:26;44.97;;;4.40;;
7969;SDS011;4030;52.362;9.206;2023-05-01T09:43:56;23.35;;;3.47;;
7969;SDS011;4030;52.362;9.206;2023-05-01T09:46:23;23.30;;;3.00;;
7969;SDS011;4030;52.362;9.206;2023-05-01T09:48:56;42.90;;;4.70;;
7969;SDS011;4030;52.362;9.206;2023-05-01T09:51:25;27.50;;;3.80;;
7969;SDS011;4030;52.362;9.206;2023-05-01T09:53:59;21.48;;;3.50;;
7969;SDS011;4030;52.362;9.206;2023-05-01T09:56:27;13.52;;;2.75;;
7969;SDS011;4030;52.362;9.206;2023-05-01T09:58:56;9.15;;;2.40;;
7969;SDS011;4030;52.362;9.206;2023-05-01T10:04:28;8.18;;;2.55;;
7969;SDS011;4030;52.362;9.206;2023-05-01T10:06:56;26.60;;;2.83;;
7969;SDS011;4030;52.362;9.206;2023-05-01T10:09:26;17.50;;;2.53;;
7969;SDS011;4030;52.362;9.206;2023-05-01T10:11:53;27.02;;;3.40;;
7969;SDS011;4030;52.362;9.206;2023-05-01T10:14:21;13.73;;;2.97;;
7969;SDS011;4030;52.362;9.206;2023-05-01T10:16:52;11.35;;;2.63;;
7969;SDS011;4030;52.362;9.206;2023-05-01T10:19:18;15.95;;;2.83;;
7969;SDS011;4030;52.362;9.206;2023-05-01T10:21:44;14.85;;;2.28;;
7969;SDS011;4030;52.362;9.206;2023-05-01T10:24:10;11.70;;;2.85;;
7969;SDS011;4030;52.362;9.206;2023-05-01T10:26:36;13.02;;;3.00;;
7969;SDS011;4030;52.362;9.206;2023-05-01T10:29:02;10.10;;;2.60;;
7969;SDS011;4030;52.362;9.206;2023-05-01T10:31:28;14.05;;;2.55;;
7969;SDS011;4030;52.362;9.206;2023-05-01T10:33:56;8.52;;;2.30;;
7969;SDS011;4030;52.362;9.206;2023-05-01T10:36:26;5.45;;;2.10;;
7969;SDS011;4030;52.362;9.206;2023-05-01T10:39:01;7.07;;;2.08;;
7969;SDS011;4030;52.362;9.206;2023-05-01T10:44:30;4.32;;;1.60;;
7969;SDS011;4030;52.362;9.206;2023-05-01T10:46:58;6.72;;;1.80;;
7969;SDS011;4030;52.362;9.206;2023-05-01T10:49:24;6.65;;;2.10;;
7969;SDS011;4030;52.362;9.206;2023-05-01T10:52:28;6.88;;;2.00;;
7969;SDS011;4030;52.362;9.206;2023-05-01T10:55:21;7.43;;;2.20;;
7969;SDS011;4030;52.362;9.206;2023-05-01T10:57:59;7.43;;;2.25;;
7969;SDS011;4030;52.362;9.206;2023-05-01T11:00:25;5.80;;;2.00;;
7969;SDS011;4030;52.362;9.206;2023-05-01T11:02:50;4.00;;;1.60;;
7969;SDS011;4030;52.362;9.206;2023-05-01T11:08:34;5.82;;;1.90;;
7969;SDS011;4030;52.362;9.206;2023-05-01T11:11:43;5.68;;;2.00;;
7969;SDS011;4030;52.362;9.206;2023-05-01T11:19:42;6.05;;;1.77;;
7969;SDS011;4030;52.362;9.206;2023-05-01T11:22:10;5.10;;;1.80;;
7969;SDS011;4030;52.362;9.206;2023-05-01T11:24:37;4.78;;;1.80;;
7969;SDS011;4030;52.362;9.206;2023-05-01T11:27:03;4.45;;;1.75;;
7969;SDS011;4030;52.362;9.206;2023-05-01T11:29:29;3.70;;;1.63;;
7969;SDS011;4030;52.362;9.206;2023-05-01T11:31:59;3.30;;;1.45;;
7969;SDS011;4030;52.362;9.206;2023-05-01T11:34:25;4.68;;;1.55;;
7969;SDS011;4030;52.362;9.206;2023-05-01T11:36:51;3.97;;;1.60;;
7969;SDS011;4030;52.362;9.206;2023-05-01T11:39:18;4.05;;;1.85;;
7969;SDS011;4030;52.362;9.206;2023-05-01T11:41:44;6.50;;;1.80;;
7969;SDS011;4030;52.362;9.206;2023-05-01T11:44:11;3.42;;;1.67;;
7969;SDS011;4030;52.362;9.206;2023-05-01T11:46:40;5.28;;;1.60;;
7969;SDS011;4030;52.362;9.206;2023-05-01T11:49:06;6.20;;;1.55;;
7969;SDS011;4030;52.362;9.206;2023-05-01T11:51:32;6.07;;;1.48;;
7969;SDS011;4030;52.362;9.206;2023-05-01T11:54:08;9.05;;;2.28;;
7969;SDS011;4030;52.362;9.206;2023-05-01T11:56:36;12.75;;;2.58;;
7969;SDS011;4030;52.362;9.206;2023-05-01T11:59:14;6.78;;;1.40;;
7969;SDS011;4030;52.362;9.206;2023-05-01T12:01:41;4.93;;;1.63;;
7969;SDS011;4030;52.362;9.206;2023-05-01T12:04:10;5.13;;;1.45;;
7969;SDS011;4030;52.362;9.206;2023-05-01T12:06:38;6.18;;;1.70;;
7969;SDS011;4030;52.362;9.206;2023-05-01T12:09:18;5.90;;;1.52;;
7969;SDS011;4030;52.362;9.206;2023-05-01T12:11:45;4.90;;;1.50;;
7969;SDS011;4030;52.362;9.206;2023-05-01T12:14:16;5.53;;;1.70;;
7969;SDS011;4030;52.362;9.206;2023-05-01T12:16:43;4.95;;;1.70;;
7969;SDS011;4030;52.362;9.206;2023-05-01T12:19:11;4.30;;;1.55;;
7969;SDS011;4030;52.362;9.206;2023-05-01T12:21:38;2.60;;;1.23;;
7969;SDS011;4030;52.362;9.206;2023-05-01T12:24:08;4.22;;;1.65;;
7969;SDS011;4030;52.362;9.206;2023-05-01T12:26:35;3.95;;;1.70;;
7969;SDS011;4030;52.362;9.206;2023-05-01T12:29:02;4.97;;;1.50;;
7969;SDS011;4030;52.362;9.206;2023-05-01T12:31:30;3.80;;;1.60;;
7969;SDS011;4030;52.362;9.206;2023-05-01T12:36:23;4.18;;;1.48;;
7969;SDS011;4030;52.362;9.206;2023-05-01T12:38:58;4.03;;;1.60;;
7969;SDS011;4030;52.362;9.206;2023-05-01T12:41:35;5.03;;;1.60;;
7969;SDS011;4030;52.362;9.206;2023-05-01T12:44:21;4.47;;;1.60;;
7969;SDS011;4030;52.362;9.206;2023-05-01T12:49:27;4.90;;;1.50;;
7969;SDS011;4030;52.362;9.206;2023-05-01T12:51:55;4.20;;;1.75;;
7969;SDS011;4030;52.362;9.206;2023-05-01T12:54:23;4.07;;;1.50;;
7969;SDS011;4030;52.362;9.206;2023-05-01T12:57:03;4.75;;;1.55;;
7969;SDS011;4030;52.362;9.206;2023-05-01T12:59:34;4.53;;;1.60;;
7969;SDS011;4030;52.362;9.206;2023-05-01T13:02:02;5.10;;;1.77;;
7969;SDS011;4030;52.362;9.206;2023-05-01T13:04:29;5.45;;;1.50;;
7969;SDS011;4030;52.362;9.206;2023-05-01T13:06:55;1.85;;;1.30;;
7969;SDS011;4030;52.362;9.206;2023-05-01T13:09:23;1.92;;;1.00;;
7969;SDS011;4030;52.362;9.206;2023-05-01T13:12:00;2.67;;;1.40;;
7969;SDS011;4030;52.362;9.206;2023-05-01T13:14:36;2.75;;;1.33;;
7969;SDS011;4030;52.362;9.206;2023-05-01T13:17:06;3.35;;;1.42;;
7969;SDS011;4030;52.362;9.206;2023-05-01T13:19:33;2.20;;;1.20;;
7969;SDS011;4030;52.362;9.206;2023-05-01T13:21:59;1.45;;;1.17;;
7969;SDS011;4030;52.362;9.206;2023-05-01T13:24:38;2.45;;;1.30;;
7969;SDS011;4030;52.362;9.206;2023-05-01T13:27:09;3.45;;;1.20;;
7969;SDS011;4030;52.362;9.206;2023-05-01T13:29:39;2.33;;;1.20;;
7969;SDS011;4030;52.362;9.206;2023-05-01T13:32:09;2.80;;;1.15;;
7969;SDS011;4030;52.362;9.206;2023-05-01T13:34:35;2.10;;;0.90;;
7969;SDS011;4030;52.362;9.206;2023-05-01T13:37:08;2.10;;;1.23;;
7969;SDS011;4030;52.362;9.206;2023-05-01T13:39:37;3.50;;;1.45;;
7969;SDS011;4030;52.362;9.206;2023-05-01T13:42:06;2.67;;;1.33;;
7969;SDS011;4030;52.362;9.206;2023-05-01T13:44:41;2.50;;;0.90;;
7969;SDS011;4030;52.362;9.206;2023-05-01T13:47:10;2.67;;;1.20;;
7969;SDS011;4030;52.362;9.206;2023-05-01T13:49:40;3.65;;;1.30;;
7969;SDS011;4030;52.362;9.206;2023-05-01T13:52:09;3.28;;;1.20;;
7969;SDS011;4030;52.362;9.206;2023-05-01T13:54:42;2.50;;;1.23;;
7969;SDS011;4030;52.362;9.206;2023-05-01T13:57:08;1.92;;;1.00;;
7969;SDS011;4030;52.362;9.206;2023-05-01T13:59:41;3.38;;;1.10;;
7969;SDS011;4030;52.362;9.206;2023-05-01T14:04:53;1.58;;;1.05;;
7969;SDS011;4030;52.362;9.206;2023-05-01T14:07:20;1.50;;;1.00;;
7969;SDS011;4030;52.362;9.206;2023-05-01T14:09:51;1.55;;;0.90;;
7969;SDS011;4030;52.362;9.206;2023-05-01T14:12:23;1.55;;;0.90;;
7969;SDS011;4030;52.362;9.206;2023-05-01T14:14:56;1.55;;;1.00;;
7969;SDS011;4030;52.362;9.206;2023-05-01T14:17:32;1.67;;;1.02;;
7969;SDS011;4030;52.362;9.206;2023-05-01T14:20:00;1.52;;;0.90;;
7969;SDS011;4030;52.362;9.206;2023-05-01T14:22:30;2.05;;;1.08;;
7969;SDS011;4030;52.362;9.206;2023-05-01T14:25:19;1.67;;;1.00;;
7969;SDS011;4030;52.362;9.206;2023-05-01T14:27:54;2.03;;;1.00;;
7969;SDS011;4030;52.362;9.206;2023-05-01T14:30:27;1.27;;;1.00;;
7969;SDS011;4030;52.362;9.206;2023-05-01T14:32:57;1.30;;;0.82;;
7969;SDS011;4030;52.362;9.206;2023-05-01T14:35:27;1.77;;;0.98;;
7969;SDS011;4030;52.362;9.206;2023-05-01T14:37:53;1.02;;;0.90;;
7969;SDS011;4030;52.362;9.206;2023-05-01T14:40:24;2.78;;;1.10;;
7969;SDS011;4030;52.362;9.206;2023-05-01T14:42:52;2.15;;;1.10;;
7969;SDS011;4030;52.362;9.206;2023-05-01T14:45:19;1.83;;;1.10;;
7969;SDS011;4030;52.362;9.206;2023-05-01T14:47:45;1.00;;;0.90;;
7969;SDS011;4030;52.362;9.206;2023-05-01T14:50:17;1.40;;;1.02;;
7969;SDS011;4030;52.362;9.206;2023-05-01T14:52:45;2.78;;;0.93;;
7969;SDS011;4030;52.362;9.206;2023-05-01T14:55:11;1.48;;;0.90;;
7969;SDS011;4030;52.362;9.206;2023-05-01T14:57:38;1.48;;;0.90;;
7969;SDS011;4030;52.362;9.206;2023-05-01T15:00:04;1.67;;;1.00;;
7969;SDS011;4030;52.362;9.206;2023-05-01T15:02:33;1.63;;;1.10;;
7969;SDS011;4030;52.362;9.206;2023-05-01T15:04:58;1.40;;;0.90;;
7969;SDS011;4030;52.362;9.206;2023-05-01T15:07:24;2.38;;;0.80;;
7969;SDS011;4030;52.362;9.206;2023-05-01T15:09:50;7.95;;;1.20;;
7969;SDS011;4030;52.362;9.206;2023-05-01T15:12:15;4.22;;;1.13;;
7969;SDS011;4030;52.362;9.206;2023-05-01T15:14:43;3.25;;;1.00;;
7969;SDS011;4030;52.362;9.206;2023-05-01T15:17:08;4.13;;;1.10;;
7969;SDS011;4030;52.362;9.206;2023-05-01T15:19:34;5.38;;;1.27;;
7969;SDS011;4030;52.362;9.206;2023-05-01T15:22:00;2.10;;;1.10;;
7969;SDS011;4030;52.362;9.206;2023-05-01T15:24:28;3.08;;;1.02;;
7969;SDS011;4030;52.362;9.206;2023-05-01T15:26:54;2.28;;;0.98;;
7969;SDS011;4030;52.362;9.206;2023-05-01T15:29:19;1.60;;;0.90;;
7969;SDS011;4030;52.362;9.206;2023-05-01T15:31:45;2.50;;;0.90;;
7969;SDS011;4030;52.362;9.206;2023-05-01T15:34:11;1.55;;;0.95;;
7969;SDS011;4030;52.362;9.206;2023-05-01T15:36:37;2.35;;;1.05;;
7969;SDS011;4030;52.362;9.206;2023-05-01T15:39:03;2.83;;;0.98;;
7969;SDS011;4030;52.362;9.206;2023-05-01T15:41:31;2.63;;;0.90;;
7969;SDS011;4030;52.362;9.206;2023-05-01T15:43:56;1.25;;;0.98;;
7969;SDS011;4030;52.362;9.206;2023-05-01T15:46:22;1.83;;;0.80;;
7969;SDS011;4030;52.362;9.206;2023-05-01T15:48:50;1.60;;;1.10;;
7969;SDS011;4030;52.362;9.206;2023-05-01T15:51:16;1.48;;;0.90;;
7969;SDS011;4030;52.362;9.206;2023-05-01T15:53:41;3.67;;;1.30;;
7969;SDS011;4030;52.362;9.206;2023-05-01T15:56:07;2.13;;;1.00;;
7969;SDS011;4030;52.362;9.206;2023-05-01T15:58:33;3.67;;;1.25;;
7969;SDS011;4030;52.362;9.206;2023-05-01T16:00:59;4.53;;;1.55;;